createdAt,value
2019-04-20T00:00:39.956Z,73.40
2019-04-20T00:03:01.479Z,74.00
2019-04-20T00:05:30.944Z,73.70
2019-04-20T00:08:02.796Z,74.50
2019-04-20T00:10:44.726Z,75.20
2019-04-20T00:13:16.677Z,74.80
2019-04-20T00:15:34.594Z,75.90
2019-04-20T00:18:06.447Z,75.70
2019-04-20T00:20:36.923Z,75.70
2019-04-20T00:23:07.873Z,75.70
2019-04-20T00:26:07.692Z,75.50
2019-04-20T00:28:45.743Z,75.70
2019-04-20T00:31:12.655Z,75.70
2019-04-20T00:33:42.253Z,75.20
2019-04-20T00:35:59.366Z,76.60
2019-04-20T00:38:36.534Z,77.10
2019-04-20T00:41:04.777Z,76.90
2019-04-20T00:43:34.219Z,76.00
2019-04-20T00:46:08.246Z,76.20
2019-04-20T00:48:44.298Z,77.30
2019-04-20T00:51:27.606Z,77.40
2019-04-20T00:53:39.687Z,77.80
2019-04-20T00:56:05.992Z,78.60
2019-04-20T00:58:50.764Z,77.80
2019-04-20T01:01:25.211Z,78.10
2019-04-20T01:03:52.197Z,78.60
2019-04-20T01:06:31.781Z,79.10
2019-04-20T01:08:52.914Z,79.10
2019-04-20T01:11:29.344Z,78.50
2019-04-20T01:14:00.171Z,79.60
2019-04-20T01:16:36.850Z,79.90
2019-04-20T01:18:55.618Z,79.80
2019-04-20T01:21:28.198Z,79.80
2019-04-20T01:24:00.295Z,79.80
2019-04-20T01:26:27.719Z,79.40
2019-04-20T01:29:09.029Z,79.40
2019-04-20T01:31:36.434Z,79.40
2019-04-20T01:34:08.257Z,79.30
2019-04-20T01:36:45.718Z,80.70
2019-04-20T01:39:13.596Z,81.20
2019-04-20T01:41:35.130Z,82.10
2019-04-20T01:44:05.082Z,81.60
2019-04-20T01:46:38.358Z,81.90
2019-04-20T01:49:11.472Z,82.10
2019-04-20T01:51:48.261Z,81.80
2019-04-20T01:54:28.507Z,81.00
2019-04-20T01:56:53.437Z,81.10
2019-04-20T01:59:29.548Z,82.40
2019-04-20T02:02:11.688Z,83.30
2019-04-20T02:04:41.016Z,82.60
2019-04-20T02:07:10.792Z,83.10
2019-04-20T02:09:48.461Z,83.20
2019-04-20T02:12:18.249Z,82.90
2019-04-20T02:14:48.441Z,83.00
2019-04-20T02:17:25.273Z,83.50
2019-04-20T02:20:05.097Z,83.70
2019-04-20T02:22:33.003Z,83.70
2019-04-20T02:24:46.777Z,83.50
2019-04-20T02:27:20.638Z,84.20
2019-04-20T02:30:19.178Z,84.90
2019-04-20T02:32:55.248Z,85.30
2019-04-20T02:35:36.156Z,84.10
2019-04-20T02:38:10.501Z,84.40
2019-04-20T02:40:47.396Z,84.50
2019-04-20T02:45:45.353Z,85.00
2019-04-20T02:48:11.311Z,84.40
2019-04-20T02:50:43.285Z,83.80
2019-04-20T02:55:50.043Z,83.70
2019-04-20T02:58:18.747Z,84.70
2019-04-20T03:00:39.625Z,84.60
2019-04-20T03:03:03.495Z,85.00
2019-04-20T03:05:31.914Z,86.10
2019-04-20T03:08:08.967Z,85.90
2019-04-20T03:10:50.592Z,86.30
2019-04-20T03:13:15.913Z,86.00
2019-04-20T03:15:41.865Z,86.00
2019-04-20T03:18:17.623Z,86.80
2019-04-20T03:20:46.532Z,86.80
2019-04-20T03:26:12.794Z,87.10
2019-04-20T03:29:01.097Z,87.50
2019-04-20T03:37:28.140Z,87.60
2019-04-20T03:39:46.755Z,88.20
2019-04-20T03:42:02.205Z,88.60
2019-04-20T03:44:34.182Z,88.40
2019-04-20T03:47:08.228Z,89.20
2019-04-20T03:50:12.075Z,89.70
2019-04-20T03:52:27.768Z,90.10
2019-04-20T03:55:12.859Z,89.70
2019-04-20T03:58:01.216Z,89.70
2019-04-20T04:00:29.091Z,90.50
2019-04-20T04:03:26.212Z,90.20
2019-04-20T04:05:40.815Z,90.40
2019-04-20T04:08:07.481Z,90.40
2019-04-20T04:10:47.895Z,89.70
2019-04-20T04:13:14.820Z,90.00
2019-04-20T04:15:52.002Z,89.70
2019-04-20T04:18:26.199Z,89.50
2019-04-20T04:20:55.318Z,89.70
2019-04-20T04:23:36.678Z,89.60
2019-04-20T04:28:41.139Z,90.10
2019-04-20T04:31:12.181Z,89.60
2019-04-20T04:33:58.131Z,89.60
2019-04-20T04:36:15.480Z,90.30
2019-04-20T04:38:51.742Z,90.20
2019-04-20T04:41:32.310Z,90.30
2019-04-20T04:43:49.823Z,90.50
2019-04-20T04:46:01.691Z,90.60
2019-04-20T04:48:35.576Z,91.10
2019-04-20T04:51:11.315Z,91.10
2019-04-20T04:53:45.235Z,90.80
2019-04-20T04:56:09.468Z,90.60
2019-04-20T04:58:36.259Z,90.60
2019-04-20T05:01:11.756Z,90.60
2019-04-20T05:04:02.904Z,90.50
2019-04-20T05:06:26.417Z,90.60
2019-04-20T05:08:45.465Z,90.30
2019-04-20T05:11:13.037Z,90.10
2019-04-20T05:13:48.902Z,90.20
2019-04-20T05:16:27.984Z,90.40
2019-04-20T05:19:11.931Z,90.50
2019-04-20T05:21:39.822Z,90.50
2019-04-20T05:24:30.584Z,90.40
2019-04-20T05:27:11.705Z,90.60
2019-04-20T05:29:24.921Z,90.60
2019-04-20T05:31:56.249Z,89.90
2019-04-20T05:34:45.122Z,90.00
2019-04-20T05:37:20.830Z,89.40
2019-04-20T05:39:47.430Z,88.60
2019-04-20T05:42:22.100Z,88.50
2019-04-20T05:44:52.790Z,88.40
2019-04-20T05:47:16.919Z,88.80
2019-04-20T05:49:45.418Z,88.10
2019-04-20T05:54:51.121Z,86.70
2019-04-20T05:57:25.229Z,87.30
2019-04-20T05:59:55.710Z,87.10
2019-04-20T06:02:29.434Z,86.50
2019-04-20T06:05:05.652Z,85.70
2019-04-20T06:10:01.546Z,85.00
2019-04-20T06:12:34.408Z,84.10
2019-04-20T06:15:04.519Z,84.40
2019-04-20T06:18:00.995Z,84.50
2019-04-20T06:20:36.695Z,85.10
2019-04-20T06:23:27.266Z,84.40
2019-04-20T06:26:13.461Z,83.80
2019-04-20T06:28:28.077Z,83.60
2019-04-20T06:30:52.604Z,83.50
2019-04-20T06:34:19.960Z,83.40
2019-04-20T06:36:56.072Z,82.30
2019-04-20T06:39:16.215Z,81.90
2019-04-20T06:42:02.246Z,79.60
2019-04-20T06:44:14.784Z,79.50
2019-04-20T06:46:53.654Z,78.10
2019-04-20T06:49:22.906Z,78.00
2019-04-20T06:51:55.351Z,77.60
2019-04-20T06:54:38.424Z,77.80
2019-04-20T06:57:09.870Z,77.70
2019-04-20T07:00:12.786Z,76.90
2019-04-20T07:02:28.388Z,76.60
2019-04-20T07:04:47.509Z,75.00
2019-04-20T07:12:14.336Z,74.60
2019-04-20T07:14:40.516Z,74.20
2019-04-20T07:17:33.340Z,72.80
2019-04-20T07:19:50.033Z,71.70
2019-04-20T07:22:46.491Z,72.40
2019-04-20T07:25:14.318Z,71.20
2019-04-20T07:27:48.519Z,70.60
2019-04-20T07:30:33.438Z,70.30
2019-04-20T07:32:54.918Z,71.00
2019-04-20T07:35:19.760Z,71.20
2019-04-20T07:40:20.373Z,66.00
2019-04-20T07:43:02.893Z,64.30
2019-04-20T07:48:02.795Z,61.00
2019-04-20T07:50:26.501Z,62.00
2019-04-20T07:52:51.145Z,60.20
2019-04-20T07:55:40.014Z,58.00
2019-04-20T07:57:57.974Z,58.00
2019-04-20T08:00:44.488Z,57.70
2019-04-20T08:03:28.398Z,57.30
2019-04-20T08:05:51.233Z,56.50
2019-04-20T08:08:30.449Z,55.00
2019-04-20T08:11:02.614Z,55.00
2019-04-20T08:13:40.388Z,54.60
2019-04-20T08:16:06.378Z,55.70
2019-04-20T08:18:42.856Z,54.70
2019-04-20T08:21:11.393Z,53.20
2019-04-20T08:23:38.838Z,53.80
2019-04-20T08:26:01.813Z,51.20
2019-04-20T08:28:39.445Z,49.80
2019-04-20T08:31:22.954Z,49.60
2019-04-20T08:34:07.732Z,49.00
2019-04-20T08:36:33.135Z,47.80
2019-04-20T08:39:24.472Z,47.80
2019-04-20T08:41:30.150Z,48.50
2019-04-20T08:44:31.103Z,48.60
2019-04-20T08:46:47.628Z,48.00
2019-04-20T08:49:13.175Z,46.60
2019-04-20T08:51:53.783Z,48.80
2019-04-20T08:54:06.862Z,45.90
2019-04-20T08:56:34.872Z,46.50
2019-04-20T08:58:53.127Z,45.10
2019-04-20T09:01:27.178Z,45.30
2019-04-20T09:04:02.072Z,44.50
2019-04-20T09:06:41.496Z,44.50
2019-04-20T09:09:29.286Z,43.70
2019-04-20T09:11:49.247Z,41.50
2019-04-20T09:14:03.902Z,42.90
2019-04-20T09:16:38.884Z,42.30
2019-04-20T09:19:07.880Z,43.10
2019-04-20T09:21:42.754Z,41.40
2019-04-20T09:24:30.571Z,42.10
2019-04-20T09:26:54.280Z,42.00
2019-04-20T09:29:23.605Z,42.80
2019-04-20T09:31:53.014Z,41.20
2019-04-20T09:34:42.803Z,40.80
2019-04-20T09:37:21.747Z,40.50
2019-04-20T09:39:44.961Z,39.50
2019-04-20T09:42:14.775Z,40.20
2019-04-20T09:44:49.097Z,38.80
2019-04-20T09:47:23.336Z,37.80
2019-04-20T09:49:58.065Z,37.30
2019-04-20T09:52:33.538Z,37.70
2019-04-20T09:55:03.135Z,36.80
2019-04-20T09:57:38.678Z,34.80
2019-04-20T10:00:05.592Z,35.90
2019-04-20T10:02:29.499Z,35.00
2019-04-20T10:04:57.720Z,34.80
2019-04-20T10:07:33.524Z,34.80
2019-04-20T10:10:14.883Z,32.50
2019-04-20T10:12:35.674Z,32.30
2019-04-20T10:15:14.059Z,29.40
2019-04-20T10:17:38.861Z,29.40
2019-04-20T10:20:17.210Z,30.50
2019-04-20T10:22:40.556Z,30.00
2019-04-20T10:25:10.814Z,30.30
2019-04-20T10:27:42.349Z,28.70
2019-04-20T10:30:12.741Z,28.80
2019-04-20T10:32:45.611Z,27.80
2019-04-20T10:35:16.569Z,28.20
2019-04-20T10:37:47.233Z,28.10
2019-04-20T10:40:34.439Z,26.60
2019-04-20T10:42:50.154Z,27.70
2019-04-20T10:45:21.262Z,27.70
2019-04-20T10:47:52.813Z,27.40
2019-04-20T10:50:22.998Z,26.90
2019-04-20T10:52:52.317Z,26.80
2019-04-20T10:55:21.725Z,24.80
2019-04-20T10:57:51.402Z,25.60
2019-04-20T11:00:23.973Z,24.50
2019-04-20T11:02:53.338Z,25.50
2019-04-20T11:05:22.374Z,24.20
2019-04-20T11:07:52.549Z,23.00
2019-04-20T11:10:27.409Z,24.90
2019-04-20T11:12:53.219Z,22.20
2019-04-20T11:15:21.833Z,23.30
2019-04-20T11:17:51.450Z,24.90
2019-04-20T11:20:21.449Z,23.90
2019-04-20T11:22:51.010Z,22.70
2019-04-20T11:25:19.951Z,22.60
2019-04-20T11:27:50.090Z,20.60
2019-04-20T11:30:20.407Z,22.60
2019-04-20T11:32:51.916Z,20.00
2019-04-20T11:35:27.806Z,20.90
2019-04-20T11:37:53.252Z,19.40
2019-04-20T11:40:23.277Z,19.50
2019-04-20T11:42:53.370Z,20.30
2019-04-20T11:45:24.731Z,19.70
2019-04-20T11:47:54.225Z,18.90
2019-04-20T11:50:25.309Z,18.20
2019-04-20T11:53:26.535Z,18.10
2019-04-20T11:56:06.123Z,19.90
2019-04-20T11:58:33.643Z,19.20
2019-04-20T12:01:18.744Z,19.70
2019-04-20T12:03:57.843Z,18.80
2019-04-20T12:06:17.042Z,17.50
2019-04-20T12:08:47.085Z,17.80
2019-04-20T12:11:27.797Z,20.90
2019-04-20T12:13:48.867Z,19.20
2019-04-20T12:16:19.703Z,18.60
2019-04-20T12:18:50.206Z,18.70
2019-04-20T12:21:20.974Z,19.30
2019-04-20T12:23:51.996Z,18.50
2019-04-20T12:26:22.628Z,17.90
2019-04-20T12:28:53.709Z,17.80
2019-04-20T12:31:27.187Z,18.00
2019-04-20T12:33:54.842Z,17.30
2019-04-20T12:36:25.957Z,17.90
2019-04-20T12:38:57.081Z,18.20
2019-04-20T12:41:37.606Z,17.40
2019-04-20T12:43:57.775Z,17.80
2019-04-20T12:46:28.095Z,17.90
2019-04-20T12:48:58.069Z,19.20
2019-04-20T12:51:33.947Z,18.20
2019-04-20T12:53:58.546Z,19.00
2019-04-20T12:56:28.931Z,20.00
2019-04-20T12:58:58.238Z,20.30
2019-04-20T13:01:33.329Z,20.00
2019-04-20T13:04:07.065Z,20.10
2019-04-20T13:06:37.291Z,20.10
2019-04-20T13:09:10.762Z,19.60
2019-04-20T13:11:52.919Z,18.80
2019-04-20T13:14:33.152Z,21.50
2019-04-20T13:17:02.464Z,20.20
2019-04-20T13:19:35.155Z,17.70
2019-04-20T13:22:05.227Z,18.00
2019-04-20T13:24:34.841Z,17.70
2019-04-20T13:27:04.823Z,17.90
2019-04-20T13:29:35.111Z,16.70
2019-04-20T13:32:05.482Z,18.10
2019-04-20T13:34:36.093Z,17.40
2019-04-20T13:37:06.415Z,18.90
2019-04-20T13:39:35.845Z,18.10
2019-04-20T13:42:12.469Z,18.40
2019-04-20T13:44:36.961Z,18.40
2019-04-20T13:47:07.244Z,18.30
2019-04-20T13:49:36.851Z,18.10
2019-04-20T13:52:06.649Z,17.90
2019-04-20T13:54:36.244Z,17.70
2019-04-20T13:57:08.028Z,18.30
2019-04-20T13:59:39.945Z,20.50
2019-04-20T14:02:14.988Z,18.70
2019-04-20T14:04:46.532Z,19.00
2019-04-20T14:07:17.045Z,19.00
2019-04-20T14:09:47.781Z,17.90
2019-04-20T14:12:25.126Z,17.80
2019-04-20T14:14:48.935Z,17.30
2019-04-20T14:17:19.186Z,18.00
2019-04-20T14:19:49.202Z,17.20
2019-04-20T14:22:20.818Z,17.00
2019-04-20T14:24:51.075Z,17.80
2019-04-20T14:27:21.257Z,18.60
2019-04-20T14:29:52.927Z,17.30
2019-04-20T14:32:22.855Z,17.10
2019-04-20T14:34:53.228Z,17.00
2019-04-20T14:37:22.757Z,17.50
2019-04-20T14:39:52.362Z,17.40
2019-04-20T14:42:30.449Z,16.70
2019-04-20T14:44:52.102Z,16.90
2019-04-20T14:47:21.721Z,17.10
2019-04-20T14:49:51.067Z,16.50
2019-04-20T14:52:21.669Z,17.00
2019-04-20T14:54:51.212Z,18.30
2019-04-20T14:57:21.405Z,17.20
2019-04-20T14:59:53.695Z,17.20
2019-04-20T15:02:23.872Z,16.10
2019-04-20T15:04:54.819Z,16.80
2019-04-20T15:07:24.646Z,16.90
2019-04-20T15:09:55.091Z,16.40
2019-04-20T15:12:37.875Z,16.40
2019-04-20T15:14:56.575Z,17.40
2019-04-20T15:17:27.845Z,18.80
2019-04-20T15:19:59.251Z,18.50
2019-04-20T15:22:33.790Z,18.40
2019-04-20T15:25:05.331Z,19.10
2019-04-20T15:27:35.228Z,18.30
2019-04-20T15:30:14.023Z,17.80
2019-04-20T15:32:52.309Z,21.00
2019-04-20T15:35:24.685Z,18.50
2019-04-20T15:37:55.315Z,17.80
2019-04-20T15:40:24.793Z,20.40
2019-04-20T15:43:01.065Z,20.00
2019-04-20T15:45:25.396Z,19.70
2019-04-20T15:47:56.205Z,18.00
2019-04-20T15:50:25.781Z,19.00
2019-04-20T15:52:57.372Z,18.70
2019-04-20T15:55:32.057Z,20.60
2019-04-20T15:57:57.633Z,21.00
2019-04-20T16:00:26.760Z,21.30
2019-04-20T16:03:03.395Z,22.20
2019-04-20T16:05:40.919Z,21.60
2019-04-20T16:08:24.084Z,21.30
2019-04-20T16:10:54.864Z,22.50
2019-04-20T16:13:32.014Z,23.00
2019-04-20T16:15:56.122Z,21.10
2019-04-20T16:18:27.182Z,21.20
2019-04-20T16:21:05.406Z,21.50
2019-04-20T16:23:30.475Z,22.10
2019-04-20T16:26:05.808Z,23.10
2019-04-20T16:28:35.576Z,22.80
2019-04-20T16:31:09.665Z,22.50
2019-04-20T16:33:36.733Z,22.90
2019-04-20T16:36:06.304Z,24.80
2019-04-20T16:38:35.705Z,24.60
2019-04-20T16:41:06.599Z,24.80
2019-04-20T16:43:41.007Z,23.20
2019-04-20T16:46:07.291Z,23.00
2019-04-20T16:48:37.917Z,23.80
2019-04-20T16:51:07.463Z,23.60
2019-04-20T16:53:39.389Z,23.20
2019-04-20T16:56:08.615Z,24.20
2019-04-20T16:58:38.092Z,24.60
2019-04-20T17:01:07.755Z,24.30
2019-04-20T17:03:49.207Z,24.80
2019-04-20T17:06:08.619Z,24.30
2019-04-20T17:08:41.080Z,25.70
2019-04-20T17:11:09.809Z,24.90
2019-04-20T17:13:43.826Z,23.80
2019-04-20T17:16:10.067Z,23.00
2019-04-20T17:18:39.539Z,22.90
2019-04-20T17:21:16.537Z,23.70
2019-04-20T17:23:42.177Z,23.40
2019-04-20T17:26:12.687Z,23.70
2019-04-20T17:29:02.163Z,25.90
2019-04-20T17:31:39.815Z,24.50
2019-04-20T17:34:26.957Z,24.70
2019-04-20T17:36:42.125Z,24.10
2019-04-20T17:39:15.455Z,24.90
2019-04-20T17:42:00.493Z,25.20
2019-04-20T17:44:28.754Z,25.50
2019-04-20T17:46:56.853Z,25.30
2019-04-20T17:49:31.559Z,24.80
2019-04-20T17:52:11.948Z,25.70
2019-04-20T17:54:22.779Z,25.50
2019-04-20T17:56:52.597Z,26.10
2019-04-20T17:59:22.328Z,25.40
2019-04-20T18:02:06.853Z,26.90
2019-04-20T18:04:54.438Z,26.10
2019-04-20T18:07:18.330Z,27.30
2019-04-20T18:09:53.380Z,28.20
2019-04-20T18:12:08.514Z,27.20
2019-04-20T18:14:52.018Z,29.70
2019-04-20T18:17:17.822Z,29.70
2019-04-20T18:19:45.036Z,29.20
2019-04-20T18:22:15.846Z,30.80
2019-04-20T18:25:07.622Z,31.00
2019-04-20T18:27:37.282Z,32.20
2019-04-20T18:30:07.031Z,34.20
2019-04-20T18:32:21.142Z,34.20
2019-04-20T18:34:58.453Z,34.70
2019-04-20T18:37:23.970Z,35.90
2019-04-20T18:39:59.615Z,36.70
2019-04-20T18:42:32.394Z,38.60
2019-04-20T18:45:12.577Z,40.10
2019-04-20T18:47:45.236Z,41.10
2019-04-20T18:50:09.495Z,41.30
2019-04-20T18:52:31.538Z,41.50
2019-04-20T18:55:01.655Z,41.90
2019-04-20T18:57:33.218Z,41.10
2019-04-20T19:00:05.949Z,42.20
2019-04-20T19:02:42.131Z,41.60
2019-04-20T19:05:08.895Z,41.30
2019-04-20T19:07:46.556Z,41.40
2019-04-20T19:10:18.593Z,41.00
2019-04-20T19:12:55.272Z,40.60
2019-04-20T19:15:43.852Z,42.60
2019-04-20T19:18:27.132Z,42.50
2019-04-20T19:20:48.767Z,44.20
2019-04-20T19:23:18.848Z,42.80
2019-04-20T19:25:48.311Z,43.00
2019-04-20T19:28:22.744Z,42.90
2019-04-20T19:31:01.818Z,43.00
2019-04-20T19:33:35.747Z,42.00
2019-04-20T19:36:04.805Z,42.80
2019-04-20T19:38:30.247Z,43.40
2019-04-20T19:41:01.704Z,44.20
2019-04-20T19:43:33.547Z,44.00
2019-04-20T19:46:35.322Z,44.10
2019-04-20T19:48:40.727Z,44.80
2019-04-20T19:51:24.054Z,46.00
2019-04-20T19:53:55.061Z,45.40
2019-04-20T19:56:16.670Z,45.90
2019-04-20T19:58:47.252Z,45.50
2019-04-20T20:01:06.640Z,46.60
2019-04-20T20:03:37.642Z,45.50
2019-04-20T20:06:12.007Z,46.10
2019-04-20T20:08:40.499Z,45.90
2019-04-20T20:11:16.896Z,46.50
2019-04-20T20:13:46.198Z,47.00
2019-04-20T20:16:20.506Z,48.10
2019-04-20T20:18:53.337Z,46.80
2019-04-20T20:21:23.895Z,47.90
2019-04-20T20:23:45.936Z,46.90
2019-04-20T20:26:23.055Z,48.40
2019-04-20T20:29:35.866Z,48.50
2019-04-20T20:32:14.622Z,49.00
2019-04-20T20:34:37.821Z,48.80
2019-04-20T20:37:08.778Z,49.30
2019-04-20T20:39:36.427Z,49.50
2019-04-20T20:42:15.587Z,49.00
2019-04-20T20:44:44.091Z,49.20
2019-04-20T20:47:31.313Z,48.40
2019-04-20T20:50:03.623Z,49.40
2019-04-20T20:52:27.307Z,50.20
2019-04-20T20:54:49.547Z,49.80
2019-04-20T20:57:15.370Z,49.80
2019-04-20T20:59:54.395Z,50.90
2019-04-20T21:02:20.635Z,50.80
2019-04-20T21:05:05.873Z,51.80
2019-04-20T21:07:36.498Z,50.90
2019-04-20T21:10:06.349Z,51.30
2019-04-20T21:12:43.615Z,51.50
2019-04-20T21:15:13.494Z,51.40
2019-04-20T21:18:06.685Z,52.00
2019-04-20T21:20:27.595Z,51.30
2019-04-20T21:22:59.012Z,51.20
2019-04-20T21:25:26.365Z,52.20
2019-04-20T21:27:55.026Z,53.00
2019-04-20T21:30:32.991Z,53.20
2019-04-20T21:32:59.116Z,53.30
2019-04-20T21:35:32.461Z,54.00
2019-04-20T21:38:05.701Z,53.60
2019-04-20T21:40:36.312Z,54.70
2019-04-20T21:43:05.258Z,54.50
2019-04-20T21:45:35.353Z,55.40
2019-04-20T21:48:10.010Z,55.50
2019-04-20T21:50:54.602Z,55.90
2019-04-20T21:53:11.854Z,55.80
2019-04-20T21:55:34.563Z,55.90
2019-04-20T21:58:06.586Z,56.70
2019-04-20T22:01:07.255Z,57.20
2019-04-20T22:03:24.837Z,57.70
2019-04-20T22:06:04.502Z,58.00
2019-04-20T22:08:34.634Z,58.00
2019-04-20T22:11:05.800Z,58.00
2019-04-20T22:13:38.878Z,56.80
2019-04-20T22:16:10.579Z,57.40
2019-04-20T22:18:48.578Z,58.50
2019-04-20T22:21:17.462Z,58.80
2019-04-20T22:23:57.145Z,58.90
2019-04-20T22:26:24.633Z,58.10
2019-04-20T22:28:42.421Z,57.70
2019-04-20T22:31:12.026Z,58.00
2019-04-20T22:33:47.282Z,58.00
2019-04-20T22:36:18.074Z,57.90
2019-04-20T22:39:07.574Z,58.70
2019-04-20T22:41:40.705Z,59.10
2019-04-20T22:44:15.404Z,60.90
2019-04-20T22:46:43.766Z,59.70
2019-04-20T22:49:26.548Z,61.20
2019-04-20T22:51:53.146Z,61.10
2019-04-20T22:54:34.559Z,60.30
2019-04-20T22:56:57.582Z,59.70
2019-04-20T22:59:22.399Z,60.20
2019-04-20T23:01:53.448Z,60.50
2019-04-20T23:04:19.134Z,61.10
2019-04-20T23:06:51.633Z,62.30
2019-04-20T23:09:20.624Z,62.10
2019-04-20T23:11:55.367Z,61.70
2019-04-20T23:14:22.377Z,62.70
2019-04-20T23:16:53.938Z,63.10
2019-04-20T23:19:34.465Z,63.10
2019-04-20T23:21:58.858Z,62.90
2019-04-20T23:24:24.044Z,64.10
2019-04-20T23:26:53.360Z,65.20
2019-04-20T23:29:27.245Z,64.00
2019-04-20T23:31:59.625Z,63.50
2019-04-20T23:34:33.850Z,62.90
2019-04-20T23:37:03.009Z,64.00
2019-04-20T23:39:37.345Z,65.00
2019-04-20T23:42:07.570Z,65.10
2019-04-20T23:44:40.114Z,65.90
2019-04-20T23:47:15.593Z,66.50
2019-04-20T23:50:05.999Z,67.10
2019-04-20T23:52:36.553Z,68.60
2019-04-20T23:54:54.283Z,69.10
2019-04-20T23:57:17.877Z,69.00
2019-04-20T23:59:48.678Z,68.60
